createdAt,value
2019-01-29T00:01:48.728Z,9.13
2019-01-29T00:04:19.800Z,9.03
2019-01-29T00:06:50.906Z,7.13
2019-01-29T00:09:21.676Z,7.87
2019-01-29T00:11:52.597Z,7.77
2019-01-29T00:14:23.434Z,9.33
2019-01-29T00:16:54.552Z,9.93
2019-01-29T00:19:25.576Z,6.97
2019-01-29T00:21:56.411Z,9.80
2019-01-29T00:24:27.942Z,8.80
2019-01-29T00:26:59.819Z,10.33
2019-01-29T00:29:30.685Z,17.73
2019-01-29T00:32:01.795Z,7.13
2019-01-29T00:34:32.893Z,10.43
2019-01-29T00:37:04.047Z,14.87
2019-01-29T00:39:34.871Z,6.10
2019-01-29T00:42:05.947Z,7.17
2019-01-29T00:44:37.030Z,8.87
2019-01-29T00:47:07.905Z,7.43
2019-01-29T00:49:39.085Z,5.67
2019-01-29T00:52:10.137Z,6.60
2019-01-29T00:54:41.047Z,5.20
2019-01-29T00:57:12.115Z,9.37
2019-01-29T00:59:43.109Z,5.83
2019-01-29T01:02:14.006Z,5.90
2019-01-29T01:04:45.101Z,7.57
2019-01-29T01:07:16.102Z,8.13
2019-01-29T01:09:47.164Z,8.30
2019-01-29T01:12:18.096Z,5.87
2019-01-29T01:14:49.159Z,8.10
2019-01-29T01:17:20.080Z,7.93
2019-01-29T01:19:51.168Z,6.20
2019-01-29T01:22:22.081Z,7.93
2019-01-29T01:24:52.927Z,6.70
2019-01-29T01:27:24.255Z,5.40
2019-01-29T01:29:55.084Z,7.77
2019-01-29T01:32:25.863Z,7.07
2019-01-29T01:34:56.718Z,11.10
2019-01-29T01:37:28.089Z,8.57
2019-01-29T01:39:58.868Z,9.27
2019-01-29T01:42:29.922Z,10.17
2019-01-29T01:45:01.214Z,10.47
2019-01-29T01:47:32.225Z,11.43
2019-01-29T01:50:03.191Z,7.70
2019-01-29T01:52:34.531Z,7.07
2019-01-29T01:55:06.789Z,8.57
2019-01-29T01:57:37.959Z,7.93
2019-01-29T02:00:14.082Z,8.37
2019-01-29T02:02:45.049Z,7.93
2019-01-29T02:05:16.031Z,6.80
2019-01-29T02:07:47.234Z,9.87
2019-01-29T02:10:26.913Z,7.00
2019-01-29T02:12:57.867Z,10.17
2019-01-29T02:15:28.820Z,8.83
2019-01-29T02:17:59.826Z,7.10
2019-01-29T02:20:30.923Z,8.57
2019-01-29T02:23:07.720Z,8.33
2019-01-29T02:25:34.559Z,6.10
2019-01-29T02:28:05.727Z,6.00
2019-01-29T02:30:37.783Z,8.20
2019-01-29T02:33:09.306Z,6.53
2019-01-29T02:35:40.247Z,8.43
2019-01-29T02:38:11.870Z,6.10
2019-01-29T02:40:43.277Z,6.97
2019-01-29T02:43:14.542Z,7.40
2019-01-29T02:45:45.596Z,9.30
2019-01-29T02:48:16.680Z,8.03
2019-01-29T02:50:48.124Z,8.70
2019-01-29T02:54:12.589Z,9.53
2019-01-29T03:00:11.190Z,8.53
2019-01-29T03:06:06.654Z,9.00
2019-01-29T03:08:37.763Z,9.37
2019-01-29T03:11:09.406Z,7.37
2019-01-29T03:16:29.233Z,7.03
2019-01-29T03:19:00.593Z,7.63
2019-01-29T03:21:31.969Z,5.90
2019-01-29T03:24:03.674Z,8.40
2019-01-29T03:26:35.162Z,9.40
2019-01-29T03:29:06.284Z,9.53
2019-01-29T03:31:37.821Z,9.03
2019-01-29T03:34:09.363Z,7.50
2019-01-29T03:36:40.325Z,9.67
2019-01-29T03:39:11.657Z,9.90
2019-01-29T03:41:45.823Z,10.37
2019-01-29T03:44:17.751Z,7.73
2019-01-29T03:46:48.986Z,11.10
2019-01-29T03:49:20.407Z,9.90
2019-01-29T03:51:51.477Z,13.60
2019-01-29T03:54:23.122Z,9.93
2019-01-29T03:56:54.545Z,11.63
2019-01-29T03:59:26.036Z,11.97
2019-01-29T04:01:57.144Z,9.40
2019-01-29T04:04:28.478Z,9.63
2019-01-29T04:06:59.616Z,8.07
2019-01-29T04:09:30.722Z,12.20
2019-01-29T04:12:01.887Z,8.70
2019-01-29T04:14:33.079Z,9.67
2019-01-29T04:17:04.219Z,7.67
2019-01-29T04:19:35.327Z,10.43
2019-01-29T04:22:06.320Z,10.90
2019-01-29T04:24:37.831Z,9.20
2019-01-29T04:27:09.022Z,9.43
2019-01-29T04:29:40.778Z,8.03
2019-01-29T04:32:12.147Z,13.03
2019-01-29T04:34:45.491Z,10.93
2019-01-29T04:37:16.628Z,11.70
2019-01-29T04:39:48.152Z,14.13
2019-01-29T04:42:19.454Z,10.20
2019-01-29T04:44:50.841Z,9.10
2019-01-29T04:47:22.953Z,9.70
2019-01-29T04:49:54.644Z,7.33
2019-01-29T04:52:25.961Z,10.83
2019-01-29T04:54:57.014Z,8.37
2019-01-29T04:57:28.046Z,12.13
2019-01-29T04:59:59.671Z,8.40
2019-01-29T05:02:30.815Z,10.03
2019-01-29T05:05:01.916Z,10.37
2019-01-29T05:07:33.320Z,8.00
2019-01-29T05:10:05.232Z,10.17
2019-01-29T05:12:36.477Z,7.37
2019-01-29T05:15:10.563Z,9.67
2019-01-29T05:17:41.857Z,9.23
2019-01-29T05:20:15.361Z,9.77
2019-01-29T05:22:46.503Z,8.73
2019-01-29T05:25:17.706Z,8.43
2019-01-29T05:27:50.130Z,8.73
2019-01-29T05:30:23.378Z,8.97
2019-01-29T05:32:54.734Z,9.27
2019-01-29T05:35:25.844Z,6.97
2019-01-29T05:37:57.048Z,8.00
2019-01-29T05:40:28.170Z,10.07
2019-01-29T05:42:59.204Z,8.07
2019-01-29T05:45:30.724Z,8.27
2019-01-29T05:48:02.073Z,10.47
2019-01-29T05:50:33.326Z,10.47
2019-01-29T05:53:04.695Z,7.87
2019-01-29T05:55:35.748Z,9.67
2019-01-29T05:58:07.272Z,10.07
2019-01-29T06:00:40.864Z,9.83
2019-01-29T06:03:11.953Z,15.07
2019-01-29T06:05:43.101Z,10.80
2019-01-29T06:08:14.137Z,10.17
2019-01-29T06:10:45.004Z,8.73
2019-01-29T06:13:15.983Z,12.67
2019-01-29T06:15:47.579Z,9.80
2019-01-29T06:18:18.827Z,9.97
2019-01-29T06:20:49.937Z,10.53
2019-01-29T06:23:21.004Z,10.57
2019-01-29T06:25:51.984Z,11.30
2019-01-29T06:28:23.192Z,10.77
2019-01-29T06:30:56.661Z,12.10
2019-01-29T06:33:26.659Z,8.93
2019-01-29T06:35:57.711Z,9.47
2019-01-29T06:38:28.557Z,11.13
2019-01-29T06:40:59.433Z,10.37
2019-01-29T06:43:30.332Z,13.23
2019-01-29T06:46:01.140Z,9.97
2019-01-29T06:48:32.004Z,11.77
2019-01-29T06:51:03.239Z,8.83
2019-01-29T06:53:34.433Z,11.00
2019-01-29T06:56:05.528Z,10.13
2019-01-29T06:58:36.719Z,13.63
2019-01-29T07:01:07.597Z,10.20
2019-01-29T07:03:38.422Z,11.50
2019-01-29T07:06:09.645Z,12.03
2019-01-29T07:08:40.547Z,10.00
2019-01-29T07:11:11.411Z,10.97
2019-01-29T07:13:42.420Z,10.20
2019-01-29T07:16:31.025Z,9.07
2019-01-29T07:19:05.761Z,14.03
2019-01-29T07:21:36.802Z,9.57
2019-01-29T07:24:07.860Z,9.93
2019-01-29T07:26:39.800Z,10.10
2019-01-29T07:29:10.994Z,11.93
2019-01-29T07:31:42.284Z,8.00
2019-01-29T07:34:13.540Z,8.97
2019-01-29T07:36:44.851Z,9.30
2019-01-29T07:39:16.025Z,9.70
2019-01-29T07:41:47.476Z,8.33
2019-01-29T07:44:18.348Z,9.57
2019-01-29T07:46:49.871Z,10.90
2019-01-29T07:49:20.768Z,13.63
2019-01-29T07:51:52.053Z,13.60
2019-01-29T07:54:23.360Z,13.53
2019-01-29T07:56:54.213Z,11.67
2019-01-29T07:59:32.439Z,11.63
2019-01-29T08:01:57.650Z,11.17
2019-01-29T08:04:28.699Z,14.77
2019-01-29T08:06:59.569Z,14.40
2019-01-29T08:09:30.677Z,13.23
2019-01-29T08:12:01.882Z,11.80
2019-01-29T08:14:33.181Z,10.80
2019-01-29T08:17:05.453Z,12.03
2019-01-29T08:19:36.672Z,13.13
2019-01-29T08:22:07.802Z,15.13
2019-01-29T08:24:39.194Z,15.03
2019-01-29T08:27:10.333Z,12.40
2019-01-29T08:29:41.406Z,12.87
2019-01-29T08:32:12.520Z,9.63
2019-01-29T08:34:43.558Z,13.67
2019-01-29T08:37:14.489Z,13.70
2019-01-29T08:39:45.699Z,14.23
2019-01-29T08:42:16.566Z,13.97
2019-01-29T08:44:47.424Z,14.33
2019-01-29T08:47:18.373Z,13.50
2019-01-29T08:49:49.151Z,17.20
2019-01-29T08:52:20.186Z,14.87
2019-01-29T08:54:50.961Z,14.50
2019-01-29T08:57:22.321Z,14.37
2019-01-29T08:59:53.641Z,16.30
2019-01-29T09:02:24.516Z,12.60
2019-01-29T09:04:56.260Z,12.73
2019-01-29T09:07:27.365Z,14.27
2019-01-29T09:09:58.435Z,9.33
2019-01-29T09:12:29.564Z,11.40
2019-01-29T09:15:00.968Z,12.93
2019-01-29T09:17:32.076Z,11.43
2019-01-29T09:20:03.309Z,14.40
2019-01-29T09:22:34.456Z,13.43
2019-01-29T09:25:06.416Z,14.03
2019-01-29T09:27:37.525Z,13.60
2019-01-29T09:30:11.188Z,10.80
2019-01-29T09:32:42.053Z,13.77
2019-01-29T09:35:13.054Z,11.70
2019-01-29T09:37:44.157Z,10.97
2019-01-29T09:40:16.990Z,11.13
2019-01-29T09:42:48.000Z,11.70
2019-01-29T09:45:19.937Z,12.30
2019-01-29T09:47:51.176Z,15.90
2019-01-29T09:50:23.124Z,13.60
2019-01-29T09:52:54.566Z,14.13
2019-01-29T09:55:29.564Z,14.30
2019-01-29T09:57:58.709Z,12.87
2019-01-29T10:00:31.695Z,11.13
2019-01-29T10:03:02.638Z,12.10
2019-01-29T10:05:34.086Z,12.40
2019-01-29T10:08:06.111Z,12.33
2019-01-29T10:10:36.950Z,16.57
2019-01-29T10:13:07.818Z,14.70
2019-01-29T10:15:38.747Z,11.50
2019-01-29T10:18:09.843Z,13.80
2019-01-29T10:20:40.746Z,13.63
2019-01-29T10:23:11.537Z,15.70
2019-01-29T10:25:43.349Z,14.83
2019-01-29T10:28:14.215Z,10.97
2019-01-29T10:30:45.289Z,14.03
2019-01-29T10:33:16.855Z,12.33
2019-01-29T10:35:47.832Z,14.23
2019-01-29T10:38:18.905Z,11.53
2019-01-29T10:40:49.984Z,13.90
2019-01-29T10:43:21.099Z,13.20
2019-01-29T10:45:52.017Z,13.40
2019-01-29T10:48:22.812Z,11.87
2019-01-29T10:50:53.759Z,11.97
2019-01-29T10:53:24.550Z,15.70
2019-01-29T10:55:55.800Z,12.33
2019-01-29T10:58:26.957Z,14.53
2019-01-29T11:00:57.891Z,12.80
2019-01-29T11:03:28.943Z,14.53
2019-01-29T11:06:00.020Z,15.93
2019-01-29T11:08:31.122Z,14.73
2019-01-29T11:11:02.195Z,12.37
2019-01-29T11:13:33.242Z,15.17
2019-01-29T11:16:04.423Z,14.20
2019-01-29T11:18:35.360Z,14.23
2019-01-29T11:21:06.287Z,14.77
2019-01-29T11:23:37.192Z,16.33
2019-01-29T11:26:08.406Z,15.90
2019-01-29T11:28:39.287Z,14.30
2019-01-29T11:31:10.295Z,14.97
2019-01-29T11:33:41.193Z,13.80
2019-01-29T11:36:11.989Z,18.00
2019-01-29T11:38:42.866Z,15.53
2019-01-29T11:41:14.301Z,16.53
2019-01-29T11:43:45.174Z,16.83
2019-01-29T11:46:16.086Z,18.23
2019-01-29T11:48:46.955Z,14.43
2019-01-29T11:51:17.815Z,14.80
2019-01-29T11:53:48.690Z,16.13
2019-01-29T11:56:19.945Z,14.27
2019-01-29T11:58:50.812Z,15.40
2019-01-29T12:01:24.317Z,19.63
2019-01-29T12:03:55.661Z,17.07
2019-01-29T12:06:26.512Z,17.13
2019-01-29T12:08:57.382Z,16.77
2019-01-29T12:11:28.456Z,13.03
2019-01-29T12:13:59.255Z,16.83
2019-01-29T12:16:30.270Z,15.00
2019-01-29T12:19:01.292Z,14.87
2019-01-29T12:21:32.718Z,15.87
2019-01-29T12:24:03.661Z,14.07
2019-01-29T12:26:34.647Z,11.50
2019-01-29T12:29:06.027Z,12.20
2019-01-29T12:31:37.376Z,10.70
2019-01-29T12:34:08.168Z,14.83
2019-01-29T12:36:39.014Z,9.83
2019-01-29T12:39:10.173Z,11.43
2019-01-29T12:41:41.144Z,11.23
2019-01-29T12:44:12.312Z,12.37
2019-01-29T12:46:43.151Z,12.13
2019-01-29T12:49:14.252Z,16.20
2019-01-29T12:52:06.922Z,10.77
2019-01-29T12:54:38.093Z,11.67
2019-01-29T12:57:09.190Z,15.43
2019-01-29T12:59:40.293Z,12.20
2019-01-29T13:02:11.324Z,14.80
2019-01-29T13:04:42.262Z,14.23
2019-01-29T13:07:13.175Z,13.57
2019-01-29T13:09:44.146Z,12.70
2019-01-29T13:12:15.192Z,12.37
2019-01-29T13:14:46.217Z,12.67
2019-01-29T13:17:17.089Z,11.50
2019-01-29T13:19:47.952Z,12.53
2019-01-29T13:22:18.798Z,10.07
2019-01-29T13:24:49.891Z,12.23
2019-01-29T13:27:20.916Z,12.20
2019-01-29T13:29:52.113Z,14.53
2019-01-29T13:32:23.117Z,12.33
2019-01-29T13:34:53.907Z,12.10
2019-01-29T13:37:24.780Z,11.33
2019-01-29T13:39:55.876Z,10.87
2019-01-29T13:42:26.718Z,12.00
2019-01-29T13:44:57.784Z,9.77
2019-01-29T13:47:28.620Z,9.97
2019-01-29T13:49:59.758Z,10.33
2019-01-29T13:52:30.800Z,8.93
2019-01-29T13:55:01.595Z,11.03
2019-01-29T13:57:32.511Z,10.40
2019-01-29T14:00:03.816Z,7.23
2019-01-29T14:02:34.777Z,8.03
2019-01-29T14:05:05.862Z,6.23
2019-01-29T14:07:36.775Z,7.93
2019-01-29T14:10:08.254Z,7.70
2019-01-29T14:12:39.396Z,9.40
2019-01-29T14:15:13.770Z,7.87
2019-01-29T14:17:47.211Z,7.60
2019-01-29T14:20:18.216Z,6.23
2019-01-29T14:22:49.628Z,10.63
2019-01-29T14:25:20.423Z,8.70
2019-01-29T14:27:51.560Z,9.67
2019-01-29T14:30:22.569Z,12.17
2019-01-29T14:32:53.744Z,12.70
2019-01-29T14:35:24.606Z,6.80
2019-01-29T14:38:49.343Z,8.57
2019-01-29T14:41:21.851Z,9.43
2019-01-29T14:43:58.013Z,8.23
2019-01-29T14:46:28.837Z,9.30
2019-01-29T14:48:59.915Z,8.53
2019-01-29T14:51:31.007Z,9.60
2019-01-29T14:54:02.210Z,12.70
2019-01-29T14:56:33.258Z,7.87
2019-01-29T14:59:04.246Z,8.80
2019-01-29T15:01:35.406Z,9.00
2019-01-29T15:04:06.272Z,9.93
2019-01-29T15:06:37.136Z,9.40
2019-01-29T15:09:10.735Z,10.87
2019-01-29T15:11:41.575Z,10.53
2019-01-29T15:14:13.317Z,10.20
2019-01-29T15:17:21.165Z,5.17
2019-01-29T15:19:52.421Z,7.33
2019-01-29T15:22:23.587Z,8.07
2019-01-29T15:24:54.357Z,9.97
2019-01-29T15:27:25.376Z,7.83
2019-01-29T15:29:56.210Z,5.23
2019-01-29T15:32:27.087Z,6.40
2019-01-29T15:34:58.263Z,6.67
2019-01-29T15:37:29.125Z,6.23
2019-01-29T15:39:59.893Z,6.50
2019-01-29T15:42:30.768Z,9.23
2019-01-29T15:45:01.548Z,12.57
2019-01-29T15:47:32.868Z,20.70
2019-01-29T15:50:04.429Z,12.17
2019-01-29T15:52:35.236Z,10.97
2019-01-29T15:55:07.796Z,9.60
2019-01-29T15:57:38.888Z,9.27
2019-01-29T16:00:14.172Z,16.80
2019-01-29T16:02:45.114Z,18.87
2019-01-29T16:05:18.641Z,21.13
2019-01-29T16:07:49.406Z,52.97
2019-01-29T16:10:23.250Z,18.13
2019-01-29T16:12:54.479Z,68.73
2019-01-29T16:15:25.745Z,27.27
2019-01-29T16:17:56.970Z,64.60
2019-01-29T16:20:27.830Z,49.40
2019-01-29T16:22:58.706Z,43.33
2019-01-29T16:25:29.676Z,36.37
2019-01-29T16:28:01.106Z,29.00
2019-01-29T16:30:32.240Z,15.63
2019-01-29T16:33:03.119Z,13.80
2019-01-29T16:35:34.175Z,25.53
2019-01-29T16:38:05.382Z,20.00
2019-01-29T16:40:36.939Z,21.03
2019-01-29T16:43:08.045Z,18.23
2019-01-29T16:45:39.486Z,33.87
2019-01-29T16:48:10.567Z,59.57
2019-01-29T16:50:42.068Z,31.40
2019-01-29T16:53:12.958Z,30.77
2019-01-29T16:55:43.817Z,46.50
2019-01-29T16:58:14.934Z,42.93
2019-01-29T17:00:45.886Z,26.53
2019-01-29T17:03:17.058Z,20.57
2019-01-29T17:05:48.161Z,29.40
2019-01-29T17:08:19.352Z,37.50
2019-01-29T17:10:50.458Z,17.00
2019-01-29T17:13:21.702Z,28.97
2019-01-29T17:15:52.579Z,30.17
2019-01-29T17:18:23.452Z,41.53
2019-01-29T17:20:54.554Z,41.57
2019-01-29T17:23:25.429Z,29.37
2019-01-29T17:25:56.356Z,46.07
2019-01-29T17:28:27.225Z,33.07
2019-01-29T17:30:59.610Z,27.00
2019-01-29T17:33:30.893Z,31.30
2019-01-29T17:36:02.108Z,41.17
2019-01-29T17:38:32.917Z,15.47
2019-01-29T17:41:03.709Z,28.03
2019-01-29T17:43:34.808Z,17.20
2019-01-29T17:46:05.689Z,19.27
2019-01-29T17:48:36.500Z,15.83
2019-01-29T17:51:07.363Z,17.60
2019-01-29T17:53:38.473Z,19.97
2019-01-29T17:56:09.328Z,30.07
2019-01-29T17:58:40.556Z,31.77
2019-01-29T18:01:12.542Z,29.33
2019-01-29T18:03:43.631Z,17.37
2019-01-29T18:06:14.501Z,17.30
2019-01-29T18:08:49.799Z,14.27
2019-01-29T18:11:18.211Z,17.67
2019-01-29T18:13:49.487Z,13.40
2019-01-29T18:16:20.434Z,16.80
2019-01-29T18:18:51.543Z,18.80
2019-01-29T18:21:22.631Z,15.83
2019-01-29T18:23:53.648Z,19.23
2019-01-29T18:26:24.772Z,16.77
2019-01-29T18:28:55.973Z,15.93
2019-01-29T18:31:27.183Z,15.53
2019-01-29T18:33:58.047Z,13.67
2019-01-29T18:36:28.842Z,18.37
2019-01-29T18:38:59.690Z,14.30
2019-01-29T18:41:30.749Z,17.50
2019-01-29T18:44:01.794Z,22.80
2019-01-29T18:46:32.896Z,16.77
2019-01-29T18:49:04.080Z,17.20
2019-01-29T18:51:35.368Z,16.90
2019-01-29T18:54:07.820Z,17.20
2019-01-29T18:56:38.905Z,16.40
2019-01-29T18:59:10.006Z,14.93
2019-01-29T19:01:41.072Z,15.30
2019-01-29T19:04:12.016Z,13.33
2019-01-29T19:06:42.865Z,15.60
2019-01-29T19:09:13.740Z,17.47
2019-01-29T19:11:44.831Z,18.27
2019-01-29T19:14:15.926Z,18.17
2019-01-29T19:16:46.883Z,21.67
2019-01-29T19:19:17.985Z,20.67
2019-01-29T19:21:49.163Z,15.30
2019-01-29T19:24:20.193Z,19.67
2019-01-29T19:26:51.195Z,19.93
2019-01-29T19:29:22.167Z,14.90
2019-01-29T19:31:53.003Z,23.10
2019-01-29T19:34:24.021Z,15.03
2019-01-29T19:36:55.028Z,15.27
2019-01-29T19:39:26.283Z,16.60
2019-01-29T19:41:57.292Z,15.83
2019-01-29T19:44:28.238Z,13.83
2019-01-29T19:46:59.017Z,15.23
2019-01-29T19:49:30.136Z,15.80
2019-01-29T19:52:01.418Z,11.33
2019-01-29T19:54:32.233Z,14.43
2019-01-29T19:57:03.080Z,15.97
2019-01-29T19:59:34.193Z,13.10
2019-01-29T20:02:05.528Z,14.67
2019-01-29T20:04:36.876Z,13.83
2019-01-29T20:07:07.819Z,11.40
2019-01-29T20:09:38.942Z,17.60
2019-01-29T20:12:09.836Z,16.47
2019-01-29T20:14:40.656Z,11.47
2019-01-29T20:17:11.423Z,15.27
2019-01-29T20:19:42.222Z,12.60
2019-01-29T20:22:13.382Z,14.03
2019-01-29T20:24:44.481Z,11.10
2019-01-29T20:27:15.333Z,14.40
2019-01-29T20:29:46.560Z,17.80
2019-01-29T20:32:17.995Z,15.40
2019-01-29T20:34:49.137Z,16.07
2019-01-29T20:37:20.552Z,12.20
2019-01-29T20:39:51.410Z,11.93
2019-01-29T20:42:22.501Z,13.80
2019-01-29T20:44:53.343Z,13.83
2019-01-29T20:47:24.146Z,16.97
2019-01-29T20:49:55.377Z,8.50
2019-01-29T20:52:26.146Z,10.27
2019-01-29T20:54:57.238Z,11.67
2019-01-29T20:57:28.022Z,16.00
2019-01-29T20:59:58.816Z,17.93
2019-01-29T21:02:29.656Z,13.43
2019-01-29T21:05:00.508Z,15.43
2019-01-29T21:07:32.537Z,16.97
2019-01-29T21:10:03.454Z,12.97
2019-01-29T21:12:34.290Z,12.10
2019-01-29T21:15:07.005Z,13.30
2019-01-29T21:17:38.093Z,13.97
2019-01-29T21:20:12.023Z,11.77
2019-01-29T21:22:43.101Z,9.63
2019-01-29T21:25:14.593Z,13.33
2019-01-29T21:27:45.502Z,9.13
2019-01-29T21:30:45.820Z,8.63
2019-01-29T21:33:16.834Z,7.63
2019-01-29T21:35:47.920Z,9.67
2019-01-29T21:38:18.758Z,8.80
2019-01-29T21:40:49.613Z,9.47
2019-01-29T21:43:20.719Z,9.20
2019-01-29T21:45:51.903Z,9.27
2019-01-29T21:48:22.735Z,8.93
2019-01-29T21:50:53.609Z,8.80
2019-01-29T21:53:24.602Z,7.63
2019-01-29T21:55:55.930Z,8.17
2019-01-29T21:58:26.792Z,7.33
2019-01-29T22:00:57.933Z,8.87
2019-01-29T22:03:28.771Z,6.60
2019-01-29T22:05:59.853Z,11.33
2019-01-29T22:08:30.732Z,8.07
2019-01-29T22:11:02.070Z,7.27
2019-01-29T22:13:32.939Z,9.93
2019-01-29T22:16:03.764Z,10.07
2019-01-29T22:18:34.528Z,7.87
2019-01-29T22:21:05.656Z,9.17
2019-01-29T22:23:36.732Z,9.27
2019-01-29T22:26:08.000Z,11.97
2019-01-29T22:28:39.367Z,15.67
2019-01-29T22:31:11.220Z,18.70
2019-01-29T22:33:42.133Z,20.30
2019-01-29T22:36:13.161Z,13.30
2019-01-29T22:38:43.948Z,14.93
2019-01-29T22:41:15.120Z,11.13
2019-01-29T22:43:46.207Z,8.90
2019-01-29T22:46:20.857Z,10.77
2019-01-29T22:48:51.861Z,10.43
2019-01-29T22:51:23.023Z,11.30
2019-01-29T22:53:54.131Z,17.00
2019-01-29T22:56:25.280Z,14.87
2019-01-29T22:58:56.286Z,11.43
2019-01-29T23:01:38.410Z,9.87
2019-01-29T23:04:17.405Z,11.13
2019-01-29T23:07:15.774Z,11.37
2019-01-29T23:09:46.626Z,10.97
2019-01-29T23:12:17.492Z,8.23
2019-01-29T23:14:48.667Z,9.67
2019-01-29T23:17:19.564Z,11.03
2019-01-29T23:19:50.375Z,7.83
2019-01-29T23:22:21.378Z,9.97
2019-01-29T23:24:52.569Z,6.60
2019-01-29T23:27:25.375Z,8.83
2019-01-29T23:29:56.159Z,9.37
2019-01-29T23:32:27.149Z,6.73
2019-01-29T23:34:58.227Z,7.57
2019-01-29T23:37:29.004Z,8.97
2019-01-29T23:39:59.772Z,9.47
2019-01-29T23:42:31.027Z,12.90
2019-01-29T23:45:02.068Z,9.57
2019-01-29T23:47:32.923Z,9.77
2019-01-29T23:50:04.523Z,7.47
2019-01-29T23:52:35.604Z,6.53
2019-01-29T23:55:07.050Z,7.93
2019-01-29T23:57:38.138Z,6.63
